Time;durP1;ratioP1;P1;durP2;ratioP2;P2;SDS_P1;SDS_P2;PMS_P1;PMS_P2;Temp;Humidity;BMP_temperature;BMP_pressure;BME280_temperature;BME280_humidity;BME280_pressure;Samples;Min_cycle;Max_cycle;Signal;HPM_P1;HPM_P2
2021/11/24 00:00:54;;;;;;;19.98;8.25;;;;;;;;;;5031195;28;20156;-67
2021/11/24 00:03:23;;;;;;;16.33;7.50;;;;;;;;;;5024114;28;20054;-65
2021/11/24 00:05:52;;;;;;;19.30;8.13;;;;;;;;;;5029105;28;20057;-65
2021/11/24 00:08:20;;;;;;;18.55;8.10;;;;;;;;;;5019712;28;20173;-68
2021/11/24 00:10:48;;;;;;;16.55;8.07;;;;;;;;;;5015416;28;20132;-65
2021/11/24 00:13:17;;;;;;;18.48;7.93;;;;;;;;;;5015654;28;20125;-65
2021/11/24 00:15:47;;;;;;;15.45;7.25;;;;;;;;;;5011488;28;20140;-65
2021/11/24 00:18:15;;;;;;;18.55;7.50;;;;;;;;;;5018780;28;20141;-65
2021/11/24 00:20:43;;;;;;;17.73;7.50;;;;;;;;;;5017027;28;20157;-65
2021/11/24 00:23:12;;;;;;;14.23;8.00;;;;;;;;;;5015493;28;20350;-65
2021/11/24 00:25:41;;;;;;;15.02;7.30;;;;;;;;;;5013075;28;20134;-65
2021/11/24 00:28:10;;;;;;;17.45;7.40;;;;;;;;;;5014562;28;20096;-66
2021/11/24 00:30:38;;;;;;;20.52;8.48;;;;;;;;;;5020121;28;20052;-65
2021/11/24 00:33:08;;;;;;;15.05;7.05;;;;;;;;;;5014446;28;20505;-64
2021/11/24 00:35:38;;;;;;;18.23;6.82;;;;;;;;;;5014330;28;20053;-65
2021/11/24 00:38:07;;;;;;;20.58;7.55;;;;;;;;;;5020130;28;20073;-65
2021/11/24 00:40:35;;;;;;;19.35;7.50;;;;;;;;;;5028667;28;20049;-65
2021/11/24 00:43:04;;;;;;;16.83;7.80;;;;;;;;;;5020950;28;20076;-65
2021/11/24 00:45:33;;;;;;;14.32;7.03;;;;;;;;;;5010486;28;20577;-65
2021/11/24 00:48:01;;;;;;;14.20;6.55;;;;;;;;;;5017562;28;20519;-65
2021/11/24 00:50:32;;;;;;;14.18;7.07;;;;;;;;;;5007202;28;20212;-65
2021/11/24 00:53:00;;;;;;;15.40;7.63;;;;;;;;;;5010004;28;20053;-65
2021/11/24 00:55:28;;;;;;;14.57;7.13;;;;;;;;;;5009453;28;20608;-65
2021/11/24 00:57:57;;;;;;;16.48;6.90;;;;;;;;;;5018494;28;20132;-65
2021/11/24 01:00:25;;;;;;;18.08;7.70;;;;;;;;;;5012190;28;20060;-65
2021/11/24 01:02:54;;;;;;;16.58;7.20;;;;;;;;;;5011387;28;20058;-66
2021/11/24 01:05:22;;;;;;;18.35;6.95;;;;;;;;;;5027754;28;20555;-65
2021/11/24 01:07:52;;;;;;;17.60;7.15;;;;;;;;;;5014349;28;20045;-64
2021/11/24 01:10:20;;;;;;;15.13;7.47;;;;;;;;;;5024431;28;20133;-68
2021/11/24 01:12:49;;;;;;;21.08;8.32;;;;;;;;;;5015923;28;20042;-65
2021/11/24 01:15:18;;;;;;;16.83;7.65;;;;;;;;;;5019506;28;20129;-66
2021/11/24 01:17:46;;;;;;;15.18;7.03;;;;;;;;;;5014416;28;20060;-66
2021/11/24 01:20:15;;;;;;;12.35;6.68;;;;;;;;;;5015455;28;20041;-65
2021/11/24 01:22:44;;;;;;;17.63;8.40;;;;;;;;;;5020441;28;20128;-65
2021/11/24 01:25:14;;;;;;;19.98;8.45;;;;;;;;;;5019807;28;20072;-66
2021/11/24 01:27:43;;;;;;;18.02;7.65;;;;;;;;;;5013682;28;20050;-65
2021/11/24 01:30:12;;;;;;;19.63;7.20;;;;;;;;;;5017687;28;20046;-65
2021/11/24 01:32:46;;;;;;;22.00;7.25;;;;;;;;;;1429002;28;10022607;-65
2021/11/24 01:35:14;;;;;;;14.45;7.18;;;;;;;;;;3962809;28;10001218;-65
2021/11/24 01:37:42;;;;;;;18.42;6.88;;;;;;;;;;5016486;28;20044;-65
2021/11/24 01:40:12;;;;;;;17.23;7.65;;;;;;;;;;5011316;28;20046;-65
2021/11/24 01:42:43;;;;;;;18.58;7.47;;;;;;;;;;5016148;28;20097;-65
2021/11/24 01:45:12;;;;;;;19.10;7.80;;;;;;;;;;5009928;28;20056;-65
2021/11/24 01:47:40;;;;;;;18.10;7.75;;;;;;;;;;5008685;28;20038;-65
2021/11/24 01:50:09;;;;;;;14.40;7.10;;;;;;;;;;5022591;28;20125;-64
2021/11/24 01:52:37;;;;;;;15.23;7.70;;;;;;;;;;5010581;28;20046;-65
2021/11/24 01:55:06;;;;;;;16.95;6.82;;;;;;;;;;5022086;28;20060;-65
2021/11/24 01:57:35;;;;;;;19.33;8.77;;;;;;;;;;5020545;28;20129;-65
2021/11/24 02:00:09;;;;;;;14.35;7.40;;;;;;;;;;5012382;28;20560;-65
2021/11/24 02:02:37;;;;;;;18.75;8.32;;;;;;;;;;5003865;28;20045;-65
2021/11/24 02:05:06;;;;;;;16.40;7.38;;;;;;;;;;5022270;28;20160;-65
2021/11/24 02:07:35;;;;;;;16.55;6.80;;;;;;;;;;5010987;28;20124;-66
2021/11/24 02:10:03;;;;;;;16.38;7.93;;;;;;;;;;5010266;28;20116;-66
2021/11/24 02:12:31;;;;;;;16.95;7.15;;;;;;;;;;5017354;28;20142;-66
2021/11/24 02:15:00;;;;;;;17.60;8.15;;;;;;;;;;5015529;28;20096;-65
2021/11/24 02:17:30;;;;;;;25.05;9.00;;;;;;;;;;5015035;28;20105;-65
2021/11/24 02:19:58;;;;;;;16.90;8.15;;;;;;;;;;5014258;28;20133;-67
2021/11/24 02:22:28;;;;;;;20.25;7.70;;;;;;;;;;5024635;28;20136;-65
2021/11/24 02:24:56;;;;;;;14.13;6.78;;;;;;;;;;5019977;28;20473;-66
2021/11/24 02:27:24;;;;;;;16.67;8.15;;;;;;;;;;5010857;28;20136;-66
2021/11/24 02:29:53;;;;;;;32.92;12.18;;;;;;;;;;5012748;28;20500;-65
2021/11/24 02:32:21;;;;;;;30.30;10.70;;;;;;;;;;5019287;28;20129;-66
2021/11/24 02:34:49;;;;;;;24.00;9.88;;;;;;;;;;5026113;28;20124;-66
2021/11/24 02:37:18;;;;;;;26.77;10.30;;;;;;;;;;5015412;28;20129;-65
2021/11/24 02:39:50;;;;;;;26.10;10.82;;;;;;;;;;5014203;28;20505;-65
2021/11/24 02:42:19;;;;;;;31.48;10.55;;;;;;;;;;5019713;28;20078;-65
2021/11/24 02:44:47;;;;;;;38.67;12.30;;;;;;;;;;5027774;28;20053;-66
2021/11/24 02:47:16;;;;;;;28.23;10.68;;;;;;;;;;5025702;28;20144;-66
2021/11/24 02:49:46;;;;;;;37.90;13.38;;;;;;;;;;5015744;28;20045;-65
2021/11/24 02:52:15;;;;;;;35.40;12.25;;;;;;;;;;5014886;28;20134;-65
2021/11/24 02:54:51;;;;;;;36.35;12.43;;;;;;;;;;5029223;28;20132;-65
2021/11/24 02:57:20;;;;;;;35.30;12.25;;;;;;;;;;5028064;28;20048;-66
2021/11/24 02:59:48;;;;;;;36.35;12.98;;;;;;;;;;5022772;28;20390;-65
2021/11/24 03:02:17;;;;;;;36.20;12.45;;;;;;;;;;5012413;28;20138;-65
2021/11/24 03:04:45;;;;;;;35.78;13.23;;;;;;;;;;5027266;28;20056;-65
2021/11/24 03:07:14;;;;;;;36.28;13.88;;;;;;;;;;5012000;28;20050;-65
2021/11/24 03:09:42;;;;;;;36.60;12.57;;;;;;;;;;5031650;28;20053;-65
2021/11/24 03:12:12;;;;;;;35.85;13.05;;;;;;;;;;5023235;28;20053;-64
2021/11/24 03:14:41;;;;;;;38.38;14.07;;;;;;;;;;5027687;28;20136;-65
2021/11/24 03:17:09;;;;;;;39.15;14.25;;;;;;;;;;5012243;28;20356;-65
2021/11/24 03:19:38;;;;;;;36.80;12.30;;;;;;;;;;5003656;28;20133;-65
2021/11/24 03:22:06;;;;;;;46.70;14.50;;;;;;;;;;5025513;28;20053;-65
2021/11/24 03:24:35;;;;;;;37.25;13.57;;;;;;;;;;5023506;28;20144;-64
2021/11/24 03:27:03;;;;;;;37.70;12.80;;;;;;;;;;5015429;28;20045;-65
2021/11/24 03:29:33;;;;;;;37.60;13.05;;;;;;;;;;5012959;28;20064;-65
2021/11/24 03:32:01;;;;;;;32.47;12.32;;;;;;;;;;5016646;28;20490;-65
2021/11/24 03:34:29;;;;;;;35.42;13.60;;;;;;;;;;5012906;28;20053;-65
2021/11/24 03:36:58;;;;;;;39.58;12.60;;;;;;;;;;5014219;28;20136;-64
2021/11/24 03:39:26;;;;;;;34.10;13.05;;;;;;;;;;5012366;28;20489;-65
2021/11/24 03:41:54;;;;;;;35.85;12.68;;;;;;;;;;5011711;28;20436;-64
2021/11/24 03:44:23;;;;;;;46.90;13.98;;;;;;;;;;5012634;28;20379;-67
2021/11/24 03:46:52;;;;;;;40.38;13.13;;;;;;;;;;5012835;28;20049;-65
2021/11/24 03:49:21;;;;;;;40.50;13.00;;;;;;;;;;5018226;28;20048;-65
2021/11/24 03:51:51;;;;;;;36.95;13.50;;;;;;;;;;5012262;28;20444;-65
2021/11/24 03:54:20;;;;;;;31.60;11.60;;;;;;;;;;5025196;28;20087;-65
2021/11/24 03:56:48;;;;;;;39.70;13.77;;;;;;;;;;5014360;28;20407;-65
2021/11/24 03:59:16;;;;;;;37.00;13.73;;;;;;;;;;5013943;28;20076;-65
2021/11/24 04:01:45;;;;;;;35.67;12.80;;;;;;;;;;5014818;28;20042;-65
2021/11/24 04:04:15;;;;;;;40.90;13.10;;;;;;;;;;5019892;28;20056;-65
2021/11/24 04:06:43;;;;;;;29.42;11.68;;;;;;;;;;5011894;28;20042;-64
2021/11/24 04:09:12;;;;;;;39.13;12.10;;;;;;;;;;5011672;28;20085;-65
2021/11/24 04:11:40;;;;;;;43.03;14.68;;;;;;;;;;5020958;28;20080;-65
2021/11/24 04:14:08;;;;;;;36.50;13.48;;;;;;;;;;5018656;28;20144;-65
2021/11/24 04:16:36;;;;;;;42.05;14.18;;;;;;;;;;5019686;28;20069;-65
2021/11/24 04:19:05;;;;;;;37.35;12.50;;;;;;;;;;5021041;28;20160;-65
2021/11/24 04:21:35;;;;;;;37.67;13.55;;;;;;;;;;5016560;28;20042;-65
2021/11/24 04:24:03;;;;;;;40.72;13.68;;;;;;;;;;5024477;28;20139;-66
2021/11/24 04:26:32;;;;;;;36.00;13.43;;;;;;;;;;5012862;28;20058;-64
2021/11/24 04:29:00;;;;;;;38.28;12.60;;;;;;;;;;5012583;28;20066;-67
2021/11/24 04:31:29;;;;;;;35.70;13.05;;;;;;;;;;5002931;28;20054;-64
2021/11/24 04:33:57;;;;;;;36.78;13.50;;;;;;;;;;5013366;28;20057;-65
2021/11/24 04:36:26;;;;;;;36.13;12.52;;;;;;;;;;5017727;28;20231;-65
2021/11/24 04:38:56;;;;;;;39.17;13.38;;;;;;;;;;5010897;28;20533;-65
2021/11/24 04:41:24;;;;;;;37.78;14.35;;;;;;;;;;5015810;28;20060;-65
2021/11/24 04:43:52;;;;;;;37.33;12.93;;;;;;;;;;5018972;28;20092;-65
2021/11/24 04:46:21;;;;;;;41.20;14.88;;;;;;;;;;5010717;28;20129;-65
2021/11/24 04:48:49;;;;;;;34.33;11.95;;;;;;;;;;5013551;28;20050;-65
2021/11/24 04:51:17;;;;;;;34.92;13.15;;;;;;;;;;5023993;28;20060;-65
2021/11/24 04:53:47;;;;;;;31.73;12.15;;;;;;;;;;5024690;28;20049;-65
2021/11/24 04:56:17;;;;;;;33.15;12.05;;;;;;;;;;5011387;28;20081;-65
2021/11/24 04:58:51;;;;;;;41.85;13.35;;;;;;;;;;5011540;28;20053;-64
2021/11/24 05:01:20;;;;;;;32.83;12.13;;;;;;;;;;5010545;28;20050;-66
2021/11/24 05:03:48;;;;;;;41.53;14.13;;;;;;;;;;5016508;28;20049;-65
2021/11/24 05:06:18;;;;;;;35.30;12.60;;;;;;;;;;5018067;28;20077;-65
2021/11/24 05:08:47;;;;;;;34.63;11.70;;;;;;;;;;5012558;28;20148;-65
2021/11/24 05:11:17;;;;;;;30.80;11.10;;;;;;;;;;5011532;28;20410;-65
2021/11/24 05:13:49;;;;;;;34.05;11.88;;;;;;;;;;5018400;28;20055;-64
2021/11/24 05:16:18;;;;;;;38.72;11.30;;;;;;;;;;5012138;28;20493;-65
2021/11/24 05:18:48;;;;;;;28.25;10.82;;;;;;;;;;5013799;28;20068;-65
2021/11/24 05:21:22;;;;;;;27.52;10.38;;;;;;;;;;5015532;28;20046;-65
2021/11/24 05:23:52;;;;;;;22.67;9.02;;;;;;;;;;5014623;28;20143;-65
2021/11/24 05:26:21;;;;;;;31.95;10.57;;;;;;;;;;5009335;28;20069;-66
2021/11/24 05:28:51;;;;;;;26.50;9.43;;;;;;;;;;5009976;28;20050;-65
2021/11/24 05:31:19;;;;;;;21.50;7.95;;;;;;;;;;5015976;28;20156;-65
2021/11/24 05:33:48;;;;;;;32.10;10.88;;;;;;;;;;5011415;28;20397;-65
2021/11/24 05:36:17;;;;;;;22.40;8.43;;;;;;;;;;5015957;28;20416;-65
2021/11/24 05:38:47;;;;;;;27.60;8.32;;;;;;;;;;5012576;28;20056;-65
2021/11/24 05:41:15;;;;;;;24.48;8.80;;;;;;;;;;5007772;28;20129;-64
2021/11/24 05:43:45;;;;;;;26.98;9.93;;;;;;;;;;5008157;28;20049;-65
2021/11/24 05:46:16;;;;;;;22.30;9.27;;;;;;;;;;4999875;28;20046;-65
2021/11/24 05:48:45;;;;;;;29.30;10.32;;;;;;;;;;5028175;28;20050;-64
2021/11/24 05:51:13;;;;;;;26.45;9.75;;;;;;;;;;5011731;28;20511;-65
2021/11/24 05:53:42;;;;;;;24.08;8.80;;;;;;;;;;5011619;28;20060;-65
2021/11/24 05:56:11;;;;;;;30.30;10.35;;;;;;;;;;5013748;28;20072;-65
2021/11/24 05:58:39;;;;;;;35.75;10.43;;;;;;;;;;5014198;28;20141;-68
2021/11/24 06:01:09;;;;;;;37.05;11.50;;;;;;;;;;5006175;28;20042;-65
2021/11/24 06:03:38;;;;;;;34.38;11.43;;;;;;;;;;5010895;28;20050;-65
2021/11/24 06:06:06;;;;;;;34.72;12.05;;;;;;;;;;5004559;28;20057;-68
2021/11/24 06:08:34;;;;;;;28.25;9.57;;;;;;;;;;5011153;28;20125;-65
2021/11/24 06:11:03;;;;;;;26.38;10.05;;;;;;;;;;5012831;28;20116;-66
2021/11/24 06:13:35;;;;;;;25.85;9.25;;;;;;;;;;5009624;28;20066;-64
2021/11/24 06:16:03;;;;;;;26.70;10.15;;;;;;;;;;5007457;28;20096;-65
2021/11/24 06:18:33;;;;;;;30.33;10.48;;;;;;;;;;5012105;28;20459;-64
2021/11/24 06:21:02;;;;;;;24.65;9.40;;;;;;;;;;5003132;28;20145;-64
2021/11/24 06:23:31;;;;;;;27.75;10.30;;;;;;;;;;5017096;28;20383;-65
2021/11/24 06:26:00;;;;;;;25.73;8.98;;;;;;;;;;5011098;28;20639;-65
2021/11/24 06:28:28;;;;;;;26.75;9.38;;;;;;;;;;5007147;28;20119;-64
2021/11/24 06:30:56;;;;;;;28.77;10.32;;;;;;;;;;5008651;28;20049;-64
2021/11/24 06:33:26;;;;;;;28.98;9.48;;;;;;;;;;5008586;28;20050;-65
2021/11/24 06:35:56;;;;;;;23.90;9.27;;;;;;;;;;5011598;28;20065;-65
2021/11/24 06:38:24;;;;;;;29.48;10.00;;;;;;;;;;5009071;28;20447;-66
2021/11/24 06:40:53;;;;;;;23.33;9.23;;;;;;;;;;5014035;28;20061;-65
2021/11/24 06:43:21;;;;;;;27.17;10.20;;;;;;;;;;5001734;28;20080;-67
2021/11/24 06:45:50;;;;;;;27.17;9.32;;;;;;;;;;5006424;28;20050;-65
2021/11/24 06:48:19;;;;;;;22.70;9.05;;;;;;;;;;5009960;28;20144;-65
2021/11/24 06:50:47;;;;;;;23.80;9.18;;;;;;;;;;5009489;28;20057;-65
2021/11/24 06:53:17;;;;;;;25.42;8.73;;;;;;;;;;5005854;28;20125;-64
2021/11/24 06:55:45;;;;;;;23.73;9.48;;;;;;;;;;5002125;28;20136;-65
2021/11/24 06:58:15;;;;;;;23.65;9.23;;;;;;;;;;5000412;28;20049;-65
2021/11/24 07:00:44;;;;;;;26.02;9.68;;;;;;;;;;5001562;28;20077;-65
2021/11/24 07:03:12;;;;;;;23.15;9.75;;;;;;;;;;5003426;28;20061;-66
2021/11/24 07:05:41;;;;;;;23.52;8.77;;;;;;;;;;5001318;28;20049;-65
2021/11/24 07:08:09;;;;;;;22.08;9.00;;;;;;;;;;5002940;28;20132;-65
2021/11/24 07:10:39;;;;;;;23.50;8.38;;;;;;;;;;5003326;28;20985;-65
2021/11/24 07:13:08;;;;;;;24.25;8.27;;;;;;;;;;5006840;28;20484;-68
2021/11/24 07:15:36;;;;;;;24.85;8.57;;;;;;;;;;5014344;28;20148;-65
2021/11/24 07:18:04;;;;;;;24.27;8.85;;;;;;;;;;4994972;28;20130;-68
2021/11/24 07:20:33;;;;;;;22.08;8.98;;;;;;;;;;5002287;28;20052;-65
2021/11/24 07:23:01;;;;;;;23.90;8.75;;;;;;;;;;4999519;28;20134;-65
2021/11/24 07:25:31;;;;;;;27.27;10.00;;;;;;;;;;5019792;28;20173;-68
2021/11/24 07:28:01;;;;;;;28.30;9.45;;;;;;;;;;5007726;28;20137;-65
2021/11/24 07:30:30;;;;;;;24.95;9.40;;;;;;;;;;5007092;28;20953;-65
2021/11/24 07:32:58;;;;;;;22.42;8.55;;;;;;;;;;5002803;28;20089;-66
2021/11/24 07:35:27;;;;;;;23.98;8.73;;;;;;;;;;5016538;28;20417;-65
2021/11/24 07:37:55;;;;;;;20.83;8.40;;;;;;;;;;5006737;28;20050;-65
2021/11/24 07:40:24;;;;;;;18.65;8.10;;;;;;;;;;5009482;28;20104;-65
2021/11/24 07:42:52;;;;;;;26.88;9.27;;;;;;;;;;5007169;28;20057;-65
2021/11/24 07:45:22;;;;;;;21.65;8.05;;;;;;;;;;5006957;28;20080;-68
2021/11/24 07:47:51;;;;;;;22.42;8.32;;;;;;;;;;5008295;28;20136;-67
2021/11/24 07:50:20;;;;;;;22.05;8.45;;;;;;;;;;4999152;28;20062;-65
2021/11/24 07:52:49;;;;;;;30.48;8.48;;;;;;;;;;5012207;28;20529;-65
2021/11/24 07:55:18;;;;;;;19.55;7.78;;;;;;;;;;5014515;28;20049;-65
2021/11/24 07:57:46;;;;;;;20.27;8.60;;;;;;;;;;5006738;28;20429;-65
2021/11/24 08:00:16;;;;;;;22.02;7.97;;;;;;;;;;5010027;28;20497;-65
2021/11/24 08:02:46;;;;;;;22.98;8.27;;;;;;;;;;5005321;28;20563;-67
2021/11/24 08:05:15;;;;;;;22.20;7.43;;;;;;;;;;5008270;28;20046;-65
2021/11/24 08:07:54;;;;;;;20.33;9.48;;;;;;;;;;5000114;28;20060;-65
2021/11/24 08:10:23;;;;;;;20.95;8.32;;;;;;;;;;5023765;28;20053;-65
2021/11/24 08:12:52;;;;;;;22.65;8.50;;;;;;;;;;5007611;28;20052;-68
2021/11/24 08:15:20;;;;;;;21.80;8.45;;;;;;;;;;5009579;28;20504;-65
2021/11/24 08:17:50;;;;;;;19.75;7.88;;;;;;;;;;4989507;28;20117;-65
2021/11/24 08:20:19;;;;;;;20.45;7.97;;;;;;;;;;4999483;28;20049;-66
2021/11/24 08:22:48;;;;;;;23.55;8.73;;;;;;;;;;5005294;28;20494;-65
2021/11/24 08:25:16;;;;;;;19.88;8.45;;;;;;;;;;5002791;28;20045;-68
2021/11/24 08:27:45;;;;;;;24.60;8.48;;;;;;;;;;5015725;28;20535;-65
2021/11/24 08:30:14;;;;;;;20.98;7.93;;;;;;;;;;4997456;28;20065;-67
2021/11/24 08:32:45;;;;;;;24.25;8.45;;;;;;;;;;4998975;28;20060;-65
2021/11/24 08:35:16;;;;;;;15.98;6.35;;;;;;;;;;5005826;28;20574;-65
2021/11/24 08:37:44;;;;;;;14.85;6.50;;;;;;;;;;4992643;28;20096;-68
2021/11/24 08:40:13;;;;;;;18.65;7.43;;;;;;;;;;5011580;28;20058;-68
2021/11/24 08:42:42;;;;;;;20.75;7.47;;;;;;;;;;5009825;28;20046;-65
2021/11/24 08:45:11;;;;;;;18.05;7.00;;;;;;;;;;5017393;28;20052;-65
2021/11/24 08:47:40;;;;;;;18.20;7.50;;;;;;;;;;5006798;28;20140;-66
2021/11/24 08:50:11;;;;;;;19.40;8.48;;;;;;;;;;5004646;28;20555;-64
2021/11/24 08:52:41;;;;;;;17.20;7.57;;;;;;;;;;5015233;28;20054;-65
2021/11/24 08:55:10;;;;;;;15.57;7.20;;;;;;;;;;5020913;28;20074;-66
2021/11/24 08:57:39;;;;;;;18.15;7.60;;;;;;;;;;5005536;28;20104;-65
2021/11/24 09:00:09;;;;;;;16.95;6.47;;;;;;;;;;4991526;28;20473;-66
2021/11/24 09:02:37;;;;;;;18.45;6.82;;;;;;;;;;5000414;28;20042;-67
2021/11/24 09:05:07;;;;;;;17.58;7.50;;;;;;;;;;5005370;28;20124;-66
2021/11/24 09:07:36;;;;;;;19.88;6.97;;;;;;;;;;5015771;28;20160;-65
2021/11/24 09:10:08;;;;;;;20.60;7.53;;;;;;;;;;5021115;28;20511;-66
2021/11/24 09:12:36;;;;;;;14.32;6.43;;;;;;;;;;5002607;28;20485;-66
2021/11/24 09:15:05;;;;;;;14.13;6.28;;;;;;;;;;4985410;28;20541;-67
2021/11/24 09:17:48;;;;;;;17.85;6.82;;;;;;;;;;5006608;28;20100;-68
2021/11/24 09:20:17;;;;;;;15.98;6.47;;;;;;;;;;5005202;28;20379;-66
2021/11/24 09:22:47;;;;;;;13.50;5.82;;;;;;;;;;5014562;28;20432;-67
2021/11/24 09:25:19;;;;;;;15.18;6.10;;;;;;;;;;5018412;28;20045;-67
2021/11/24 09:27:56;;;;;;;12.00;6.30;;;;;;;;;;5011865;28;20049;-65
2021/11/24 09:30:26;;;;;;;14.38;5.40;;;;;;;;;;4997522;28;20423;-65
2021/11/24 09:32:55;;;;;;;12.02;6.03;;;;;;;;;;5022050;28;20520;-68
2021/11/24 09:35:24;;;;;;;14.15;6.10;;;;;;;;;;5008778;28;20049;-66
2021/11/24 09:37:53;;;;;;;12.18;5.60;;;;;;;;;;5021179;28;20049;-65
2021/11/24 09:40:23;;;;;;;13.40;5.82;;;;;;;;;;5011134;28;20149;-68
2021/11/24 09:42:53;;;;;;;11.15;5.63;;;;;;;;;;5008639;28;20052;-68
2021/11/24 09:45:23;;;;;;;12.75;5.30;;;;;;;;;;5021519;28;20054;-67
2021/11/24 09:47:53;;;;;;;11.57;5.38;;;;;;;;;;5002154;28;20064;-65
2021/11/24 09:50:23;;;;;;;13.80;6.07;;;;;;;;;;5022847;28;20092;-66
2021/11/24 09:52:54;;;;;;;11.73;5.85;;;;;;;;;;5011225;28;20504;-66
2021/11/24 09:55:25;;;;;;;11.73;5.20;;;;;;;;;;5009893;28;20050;-66
2021/11/24 09:57:54;;;;;;;15.45;6.15;;;;;;;;;;5010392;28;20064;-67
2021/11/24 10:00:26;;;;;;;11.30;5.45;;;;;;;;;;5011116;28;20045;-65
2021/11/24 10:02:57;;;;;;;12.77;5.75;;;;;;;;;;4997208;28;20077;-68
2021/11/24 10:05:26;;;;;;;9.50;4.80;;;;;;;;;;5007019;28;20046;-65
2021/11/24 10:07:56;;;;;;;10.65;5.25;;;;;;;;;;5005846;28;20060;-66
2021/11/24 10:10:27;;;;;;;12.52;5.18;;;;;;;;;;5012570;28;20080;-64
2021/11/24 10:12:56;;;;;;;13.00;5.95;;;;;;;;;;5012894;28;20128;-65
2021/11/24 10:15:39;;;;;;;11.60;5.55;;;;;;;;;;5011617;28;20045;-65
2021/11/24 10:18:20;;;;;;;12.07;5.57;;;;;;;;;;5011058;28;20473;-65
2021/11/24 10:20:51;;;;;;;12.45;5.03;;;;;;;;;;5008233;28;20631;-64
2021/11/24 10:23:20;;;;;;;13.10;5.13;;;;;;;;;;5015725;28;20053;-65
2021/11/24 10:25:51;;;;;;;11.63;4.85;;;;;;;;;;5008517;28;20481;-67
2021/11/24 10:28:26;;;;;;;10.38;5.03;;;;;;;;;;5004426;28;20046;-66
2021/11/24 10:30:56;;;;;;;11.32;5.25;;;;;;;;;;4997371;28;20051;-66
2021/11/24 10:33:29;;;;;;;13.88;5.50;;;;;;;;;;4988806;28;20457;-65
2021/11/24 10:36:05;;;;;;;13.85;6.20;;;;;;;;;;5007142;28;20050;-68
2021/11/24 10:38:44;;;;;;;16.98;5.38;;;;;;;;;;5007487;28;20416;-64
2021/11/24 10:41:26;;;;;;;11.57;5.43;;;;;;;;;;5007941;28;20050;-64
2021/11/24 10:44:12;;;;;;;12.85;5.07;;;;;;;;;;5010887;28;20056;-65
2021/11/24 10:46:40;;;;;;;10.52;5.47;;;;;;;;;;5014713;28;20045;-64
2021/11/24 10:49:10;;;;;;;12.65;5.15;;;;;;;;;;5013476;28;20053;-64
2021/11/24 10:51:40;;;;;;;14.15;5.85;;;;;;;;;;5015602;28;20501;-64
2021/11/24 10:54:16;;;;;;;14.45;6.20;;;;;;;;;;5001757;28;20434;-64
2021/11/24 10:57:10;;;;;;;14.23;5.53;;;;;;;;;;5000999;28;20107;-65
2021/11/24 10:59:40;;;;;;;22.17;7.07;;;;;;;;;;5012874;28;20449;-68
2021/11/24 11:02:23;;;;;;;13.88;5.78;;;;;;;;;;5010570;28;20070;-66
2021/11/24 11:04:59;;;;;;;16.88;6.50;;;;;;;;;;5010868;28;20126;-68
2021/11/24 11:07:28;;;;;;;14.15;5.80;;;;;;;;;;5011838;28;20046;-66
2021/11/24 11:10:01;;;;;;;20.58;7.57;;;;;;;;;;5015015;28;20053;-66
2021/11/24 11:12:32;;;;;;;15.23;5.75;;;;;;;;;;5007134;28;20131;-66
2021/11/24 11:15:12;;;;;;;18.70;6.20;;;;;;;;;;5025279;28;20041;-65
2021/11/24 11:17:59;;;;;;;19.80;7.13;;;;;;;;;;5005808;28;20077;-65
2021/11/24 11:20:29;;;;;;;14.15;5.60;;;;;;;;;;5007181;28;20493;-66
2021/11/24 11:23:04;;;;;;;15.50;6.57;;;;;;;;;;5010901;28;20069;-64
2021/11/24 11:25:32;;;;;;;16.70;6.40;;;;;;;;;;5001934;28;20049;-64
2021/11/24 11:28:02;;;;;;;17.42;6.68;;;;;;;;;;5018572;28;20228;-65
2021/11/24 11:30:31;;;;;;;20.00;7.00;;;;;;;;;;5015808;28;20148;-67
2021/11/24 11:33:01;;;;;;;24.58;8.05;;;;;;;;;;5012685;28;20135;-64
2021/11/24 11:35:30;;;;;;;21.88;7.53;;;;;;;;;;5008927;28;20045;-65
2021/11/24 11:38:16;;;;;;;23.70;8.25;;;;;;;;;;5006780;28;20398;-64
2021/11/24 11:40:48;;;;;;;22.80;8.25;;;;;;;;;;5011903;28;20285;-65
2021/11/24 11:43:39;;;;;;;22.50;8.68;;;;;;;;;;4999445;28;20054;-65
2021/11/24 11:46:29;;;;;;;23.05;9.13;;;;;;;;;;5007802;28;20501;-64
2021/11/24 11:48:59;;;;;;;20.33;7.70;;;;;;;;;;5010390;28;20195;-64
2021/11/24 11:51:29;;;;;;;18.45;7.85;;;;;;;;;;5007905;28;20042;-65
2021/11/24 11:53:58;;;;;;;19.70;7.70;;;;;;;;;;5008043;28;20560;-64
2021/11/24 11:56:29;;;;;;;22.63;8.40;;;;;;;;;;5009199;28;20092;-65
2021/11/24 11:59:01;;;;;;;21.05;7.05;;;;;;;;;;5002252;28;20085;-65
2021/11/24 12:01:31;;;;;;;20.27;8.02;;;;;;;;;;5007967;28;20053;-65
2021/11/24 12:04:13;;;;;;;14.65;6.50;;;;;;;;;;4987083;28;20506;-64
2021/11/24 12:06:42;;;;;;;19.40;8.02;;;;;;;;;;5001818;28;20560;-66
2021/11/24 12:09:16;;;;;;;14.90;6.35;;;;;;;;;;5008347;28;20374;-66
2021/11/24 12:12:04;;;;;;;21.30;8.18;;;;;;;;;;5005420;28;20608;-65
2021/11/24 12:14:48;;;;;;;17.70;7.57;;;;;;;;;;4994522;28;20080;-65
2021/11/24 12:17:55;;;;;;;20.48;6.45;;;;;;;;;;5026521;28;20060;-65
2021/11/24 12:20:39;;;;;;;16.15;6.45;;;;;;;;;;5016710;28;20513;-65
2021/11/24 12:23:28;;;;;;;14.88;5.40;;;;;;;;;;5000268;28;20080;-66
2021/11/24 12:25:59;;;;;;;18.85;6.53;;;;;;;;;;5010556;28;20050;-67
2021/11/24 12:28:35;;;;;;;17.98;6.72;;;;;;;;;;5006906;28;20438;-67
2021/11/24 12:31:16;;;;;;;16.40;6.82;;;;;;;;;;5008954;28;20084;-65
2021/11/24 12:33:55;;;;;;;16.70;6.97;;;;;;;;;;5011269;28;20081;-65
2021/11/24 12:36:32;;;;;;;20.45;6.22;;;;;;;;;;5001791;28;20077;-65
2021/11/24 12:39:04;;;;;;;15.23;6.82;;;;;;;;;;5012282;28;20490;-66
2021/11/24 12:41:37;;;;;;;16.15;6.38;;;;;;;;;;5010619;28;20054;-66
2021/11/24 12:44:09;;;;;;;14.02;6.03;;;;;;;;;;5011478;28;20432;-65
2021/11/24 12:46:41;;;;;;;12.82;5.55;;;;;;;;;;5014405;28;20041;-66
2021/11/24 12:49:11;;;;;;;17.60;7.15;;;;;;;;;;5012861;28;20049;-66
2021/11/24 12:51:46;;;;;;;13.30;6.07;;;;;;;;;;5014995;28;20049;-67
2021/11/24 12:54:16;;;;;;;15.07;6.05;;;;;;;;;;5003385;28;20108;-67
2021/11/24 12:56:46;;;;;;;15.57;6.13;;;;;;;;;;5008769;28;20056;-66
2021/11/24 12:59:16;;;;;;;13.32;5.82;;;;;;;;;;5004201;28;20491;-65
2021/11/24 13:01:48;;;;;;;15.05;6.15;;;;;;;;;;5007132;28;20046;-65
2021/11/24 13:04:19;;;;;;;17.10;5.93;;;;;;;;;;4956894;28;20160;-67
2021/11/24 13:06:49;;;;;;;15.05;6.15;;;;;;;;;;5009416;28;20401;-65
2021/11/24 13:09:19;;;;;;;15.80;5.82;;;;;;;;;;5001805;28;20069;-69
2021/11/24 13:11:56;;;;;;;18.88;6.75;;;;;;;;;;5009285;28;20058;-65
2021/11/24 13:14:28;;;;;;;21.58;6.82;;;;;;;;;;5010482;28;20065;-64
2021/11/24 13:17:08;;;;;;;15.85;5.53;;;;;;;;;;5009479;28;20046;-64
2021/11/24 13:19:40;;;;;;;16.42;6.72;;;;;;;;;;5010027;28;20042;-65
2021/11/24 13:22:09;;;;;;;12.60;6.15;;;;;;;;;;5002225;28;20049;-65
2021/11/24 13:24:44;;;;;;;19.08;6.93;;;;;;;;;;5008460;28;20041;-65
2021/11/24 13:27:13;;;;;;;17.58;6.35;;;;;;;;;;5007031;28;20050;-66
2021/11/24 13:29:42;;;;;;;16.27;5.82;;;;;;;;;;5006571;28;20045;-65
2021/11/24 13:32:13;;;;;;;17.60;6.68;;;;;;;;;;5018704;28;20046;-68
2021/11/24 13:34:43;;;;;;;16.77;5.97;;;;;;;;;;4989847;28;20343;-67
2021/11/24 13:37:12;;;;;;;13.45;5.47;;;;;;;;;;5006307;28;20524;-66
2021/11/24 13:39:42;;;;;;;13.35;5.93;;;;;;;;;;5008673;28;20056;-66
2021/11/24 13:42:12;;;;;;;15.57;5.97;;;;;;;;;;5003759;28;20049;-66
2021/11/24 13:44:51;;;;;;;18.63;5.97;;;;;;;;;;5009087;28;20100;-66
2021/11/24 13:47:25;;;;;;;18.15;6.28;;;;;;;;;;5008523;28;20504;-66
2021/11/24 13:49:57;;;;;;;17.27;6.53;;;;;;;;;;5009554;28;20045;-66
2021/11/24 13:52:27;;;;;;;14.63;5.95;;;;;;;;;;5001626;28;20394;-64
2021/11/24 13:54:57;;;;;;;13.73;5.35;;;;;;;;;;5011920;28;20046;-68
2021/11/24 13:57:27;;;;;;;16.90;6.72;;;;;;;;;;5008256;28;20065;-66
2021/11/24 13:59:59;;;;;;;16.98;6.65;;;;;;;;;;5008546;28;20060;-65
2021/11/24 14:02:30;;;;;;;19.75;8.10;;;;;;;;;;5007109;28;20052;-64
2021/11/24 14:04:59;;;;;;;20.23;7.13;;;;;;;;;;5008106;28;20128;-64
2021/11/24 14:07:34;;;;;;;17.77;8.15;;;;;;;;;;5001076;28;20489;-67
2021/11/24 14:10:04;;;;;;;18.00;6.80;;;;;;;;;;5003886;28;20046;-67
2021/11/24 14:12:37;;;;;;;19.83;7.45;;;;;;;;;;4996502;28;20339;-65
2021/11/24 14:15:07;;;;;;;15.70;6.75;;;;;;;;;;5001525;28;20049;-65
2021/11/24 14:17:41;;;;;;;19.13;6.50;;;;;;;;;;5005402;28;20046;-66
2021/11/24 14:20:26;;;;;;;17.35;6.40;;;;;;;;;;5004355;28;21003;-67
2021/11/24 14:22:56;;;;;;;15.23;5.63;;;;;;;;;;5007501;28;20069;-66
2021/11/24 14:25:30;;;;;;;19.13;6.63;;;;;;;;;;5012938;28;20492;-65
2021/11/24 14:28:00;;;;;;;15.80;6.78;;;;;;;;;;5003596;28;20058;-66
2021/11/24 14:30:29;;;;;;;15.60;6.70;;;;;;;;;;5007621;28;20088;-65
2021/11/24 14:32:59;;;;;;;16.80;6.70;;;;;;;;;;5004670;28;20104;-65
2021/11/24 14:35:30;;;;;;;14.13;6.38;;;;;;;;;;5012161;28;20061;-66
2021/11/24 14:37:58;;;;;;;15.98;6.32;;;;;;;;;;5009731;28;20042;-65
2021/11/24 14:40:30;;;;;;;13.50;5.80;;;;;;;;;;5012461;28;20060;-65
2021/11/24 14:43:00;;;;;;;13.30;6.07;;;;;;;;;;5002754;28;20049;-66
2021/11/24 14:45:31;;;;;;;12.65;6.40;;;;;;;;;;5027758;28;20045;-64